sensor_id;sensor_type;location;lat;lon;timestamp;temperature;humidity
25050;DHT22;13046;49.814;9.918;2023-02-28T09:16:25;2.00;99.90
25050;DHT22;13046;49.814;9.918;2023-02-28T09:23:47;2.40;99.90
25050;DHT22;13046;49.814;9.918;2023-02-28T09:26:18;2.50;99.90
25050;DHT22;13046;49.814;9.918;2023-02-28T09:28:44;2.60;99.90
25050;DHT22;13046;49.814;9.918;2023-02-28T09:31:22;2.20;99.90
25050;DHT22;13046;49.814;9.918;2023-02-28T09:33:50;2.20;99.90
25050;DHT22;13046;49.814;9.918;2023-02-28T09:36:16;2.30;99.90
25050;DHT22;13046;49.814;9.918;2023-02-28T09:38:42;2.50;99.90
25050;DHT22;13046;49.814;9.918;2023-02-28T09:41:17;2.60;99.90
25050;DHT22;13046;49.814;9.918;2023-02-28T09:43:47;2.60;99.90
25050;DHT22;13046;49.814;9.918;2023-02-28T09:46:32;2.50;99.90
25050;DHT22;13046;49.814;9.918;2023-02-28T09:49:02;2.40;99.90
25050;DHT22;13046;49.814;9.918;2023-02-28T09:51:36;2.40;99.90
25050;DHT22;13046;49.814;9.918;2023-02-28T09:54:03;2.50;99.90
25050;DHT22;13046;49.814;9.918;2023-02-28T09:56:41;2.30;99.90
25050;DHT22;13046;49.814;9.918;2023-02-28T10:10:06;2.70;99.90
25050;DHT22;13046;49.814;9.918;2023-02-28T10:17:39;2.90;99.90
25050;DHT22;13046;49.814;9.918;2023-02-28T10:20:20;3.20;99.90
25050;DHT22;13046;49.814;9.918;2023-02-28T10:25:40;3.40;99.90
25050;DHT22;13046;49.814;9.918;2023-02-28T10:28:11;4.20;99.90
25050;DHT22;13046;49.814;9.918;2023-02-28T10:30:43;4.40;99.90
25050;DHT22;13046;49.814;9.918;2023-02-28T10:33:36;4.80;99.90
25050;DHT22;13046;49.814;9.918;2023-02-28T10:36:04;4.70;99.90
25050;DHT22;13046;49.814;9.918;2023-02-28T10:38:33;4.50;99.90
25050;DHT22;13046;49.814;9.918;2023-02-28T10:44:13;4.20;99.90
25050;DHT22;13046;49.814;9.918;2023-02-28T10:46:40;4.00;99.90
25050;DHT22;13046;49.814;9.918;2023-02-28T10:49:13;4.10;99.90
25050;DHT22;13046;49.814;9.918;2023-02-28T10:51:40;4.30;99.90
25050;DHT22;13046;49.814;9.918;2023-02-28T10:59:27;4.20;99.90
25050;DHT22;13046;49.814;9.918;2023-02-28T12:08:31;4.00;99.90
25050;DHT22;13046;49.814;9.918;2023-02-28T12:28:21;4.30;99.90
25050;DHT22;13046;49.814;9.918;2023-02-28T12:31:14;4.60;99.90
25050;DHT22;13046;49.814;9.918;2023-02-28T12:33:49;5.20;99.90
25050;DHT22;13046;49.814;9.918;2023-02-28T12:36:16;5.50;99.90
25050;DHT22;13046;49.814;9.918;2023-02-28T12:38:54;5.70;99.90
25050;DHT22;13046;49.814;9.918;2023-02-28T12:41:33;5.80;99.90
25050;DHT22;13046;49.814;9.918;2023-02-28T12:44:11;6.00;99.90
25050;DHT22;13046;49.814;9.918;2023-02-28T12:46:47;5.90;99.90
25050;DHT22;13046;49.814;9.918;2023-02-28T12:50:16;6.10;99.90
25050;DHT22;13046;49.814;9.918;2023-02-28T12:55:23;6.40;99.90
25050;DHT22;13046;49.814;9.918;2023-02-28T13:09:11;6.10;99.90
25050;DHT22;13046;49.814;9.918;2023-02-28T13:11:49;6.40;99.90
25050;DHT22;13046;49.814;9.918;2023-02-28T13:14:28;6.80;99.90
25050;DHT22;13046;49.814;9.918;2023-02-28T13:19:44;6.40;99.90
25050;DHT22;13046;49.814;9.918;2023-02-28T13:24:57;6.30;99.90
25050;DHT22;13046;49.814;9.918;2023-02-28T13:27:39;6.80;99.90
25050;DHT22;13046;49.814;9.918;2023-02-28T13:38:48;6.70;99.90
25050;DHT22;13046;49.814;9.918;2023-02-28T13:46:35;7.00;99.90
25050;DHT22;13046;49.814;9.918;2023-02-28T13:52:02;6.20;99.90
25050;DHT22;13046;49.814;9.918;2023-02-28T14:06:24;6.40;99.90
25050;DHT22;13046;49.814;9.918;2023-02-28T14:08:58;6.30;99.90
25050;DHT22;13046;49.814;9.918;2023-02-28T14:11:33;6.40;99.90
25050;DHT22;13046;49.814;9.918;2023-02-28T14:14:01;6.20;99.90
25050;DHT22;13046;49.814;9.918;2023-02-28T14:16:36;6.00;99.90
25050;DHT22;13046;49.814;9.918;2023-02-28T14:19:15;6.10;99.90
25050;DHT22;13046;49.814;9.918;2023-02-28T14:27:39;7.00;99.90
25050;DHT22;13046;49.814;9.918;2023-02-28T14:34:03;6.60;99.90
25050;DHT22;13046;49.814;9.918;2023-02-28T14:36:20;6.50;99.90
25050;DHT22;13046;49.814;9.918;2023-02-28T14:38:51;6.60;99.90
25050;DHT22;13046;49.814;9.918;2023-02-28T14:41:22;6.70;99.90
25050;DHT22;13046;49.814;9.918;2023-02-28T14:43:59;6.60;99.90
25050;DHT22;13046;49.814;9.918;2023-02-28T14:46:39;6.00;99.90
25050;DHT22;13046;49.814;9.918;2023-02-28T14:49:07;5.90;99.90
25050;DHT22;13046;49.814;9.918;2023-02-28T14:51:37;6.10;99.90
25050;DHT22;13046;49.814;9.918;2023-02-28T14:54:03;6.20;99.90
25050;DHT22;13046;49.814;9.918;2023-02-28T14:56:36;5.90;99.90
25050;DHT22;13046;49.814;9.918;2023-02-28T14:59:03;6.10;99.90
25050;DHT22;13046;49.814;9.918;2023-02-28T15:01:29;6.20;99.90
25050;DHT22;13046;49.814;9.918;2023-02-28T15:04:03;6.30;99.90
25050;DHT22;13046;49.814;9.918;2023-02-28T15:06:30;6.30;99.90
25050;DHT22;13046;49.814;9.918;2023-02-28T15:11:35;5.80;99.90
25050;DHT22;13046;49.814;9.918;2023-02-28T15:14:01;5.70;99.90
25050;DHT22;13046;49.814;9.918;2023-02-28T15:16:33;5.90;99.90
25050;DHT22;13046;49.814;9.918;2023-02-28T15:21:38;5.90;99.90
25050;DHT22;13046;49.814;9.918;2023-02-28T15:26:37;5.90;99.90
25050;DHT22;13046;49.814;9.918;2023-02-28T15:29:24;6.00;99.90
25050;DHT22;13046;49.814;9.918;2023-02-28T15:32:19;5.90;99.90
25050;DHT22;13046;49.814;9.918;2023-02-28T15:34:46;5.70;99.90
25050;DHT22;13046;49.814;9.918;2023-02-28T15:37:44;5.60;99.90
25050;DHT22;13046;49.814;9.918;2023-02-28T15:43:24;5.60;99.90
25050;DHT22;13046;49.814;9.918;2023-02-28T15:45:56;5.50;99.90
25050;DHT22;13046;49.814;9.918;2023-02-28T15:48:29;5.20;99.90
25050;DHT22;13046;49.814;9.918;2023-02-28T15:50:56;5.10;99.90
25050;DHT22;13046;49.814;9.918;2023-02-28T15:53:30;4.90;99.90
25050;DHT22;13046;49.814;9.918;2023-02-28T15:56:02;4.80;99.90
25050;DHT22;13046;49.814;9.918;2023-02-28T15:58:29;4.70;99.90
25050;DHT22;13046;49.814;9.918;2023-02-28T16:01:08;4.60;99.90
25050;DHT22;13046;49.814;9.918;2023-02-28T16:03:48;4.50;99.90
25050;DHT22;13046;49.814;9.918;2023-02-28T16:08:59;4.50;99.90
25050;DHT22;13046;49.814;9.918;2023-02-28T16:11:25;4.40;99.90
25050;DHT22;13046;49.814;9.918;2023-02-28T16:13:51;4.40;99.90
25050;DHT22;13046;49.814;9.918;2023-02-28T16:16:19;4.30;99.90
25050;DHT22;13046;49.814;9.918;2023-02-28T16:18:46;4.30;99.90
25050;DHT22;13046;49.814;9.918;2023-02-28T16:21:12;4.20;99.90
